📊 Raw Sensor Data

Showing records 37251 to 37275 of 84,909 total

ID Distance (ft) Battery V Battery A Int Temp (°F) Int Humid (%) Ext Temp (°F) Solar V RSSI SNR Time Stamp
47671 15.7 3.93 5 74 44 75 5.10 -69 8 07/29/2025 09:00 AM
47670 15.6 4.00 5 72 44 78 5.10 -70 7 07/29/2025 08:45 AM
47669 15.6 3.93 5 71 44 76 5.10 -72 8 07/29/2025 08:30 AM
47668 15.6 3.93 5 70 44 75 5.10 -71 8 07/29/2025 08:15 AM
47667 15.6 3.96 0 68 44 74 5.10 -71 7 07/29/2025 08:00 AM
47666 15.5 3.99 6 67 43 73 5.10 -71 7 07/29/2025 07:45 AM
47665 15.5 4.00 10 66 43 72 4.50 -70 8 07/29/2025 07:30 AM
47664 15.5 3.95 10 64 42 71 4.50 -69 8 07/29/2025 07:15 AM
47663 15.4 3.93 0 63 42 68 4.50 -69 7 07/29/2025 07:00 AM
47662 15.4 3.93 0 61 43 65 4.50 -69 8 07/29/2025 06:45 AM
47661 15.3 3.86 -5 59 43 63 4.50 -69 8 07/29/2025 06:30 AM
47660 15.2 3.85 -16 57 43 60 4.50 -69 8 07/29/2025 06:15 AM
47659 15.1 3.87 -5 57 44 59 1.50 -69 8 07/29/2025 06:00 AM
47658 15.3 3.87 -5 57 44 59 0.10 -69 8 07/29/2025 05:45 AM
47657 15.2 3.87 -5 57 44 59 0.00 -68 8 07/29/2025 05:30 AM
47656 15.2 3.92 -5 56 44 57 0.00 -69 8 07/29/2025 05:15 AM
47655 15.3 3.87 -5 57 44 57 0.00 -70 8 07/29/2025 05:00 AM
47654 15.3 3.87 -5 58 44 58 0.00 -69 8 07/29/2025 04:45 AM
47653 15.3 3.87 -5 58 44 60 0.00 -69 8 07/29/2025 04:30 AM
47652 15.3 3.93 -5 58 44 59 0.10 -69 7 07/29/2025 04:15 AM
47651 15.3 3.93 -5 59 44 59 0.00 -69 8 07/29/2025 04:00 AM
47650 15.3 3.87 -5 59 44 61 0.00 -69 8 07/29/2025 03:45 AM
47649 15.3 3.87 -5 59 44 60 0.00 -70 8 07/29/2025 03:30 AM
47648 15.3 3.87 -5 59 44 61 0.00 -69 8 07/29/2025 03:15 AM
47647 15.3 3.87 -5 59 44 61 0.00 -70 8 07/29/2025 03:00 AM